sensor_id;sensor_type;location;lat;lon;timestamp;pressure;altitude;pressure_sealevel;temperature;humidity
64460;BME280;50828;53.756;21.140;2023-03-11T00:01:05;97083.02;;;1.30;73.88
64460;BME280;50828;53.756;21.140;2023-03-11T00:06:13;97051.95;;;1.20;74.08
64460;BME280;50828;53.756;21.140;2023-03-11T00:11:21;97061.40;;;1.32;73.96
64460;BME280;50828;53.756;21.140;2023-03-11T00:16:30;97063.31;;;1.32;73.94
64460;BME280;50828;53.756;21.140;2023-03-11T00:21:37;97053.40;;;1.32;73.93
64460;BME280;50828;53.756;21.140;2023-03-11T00:26:45;97049.70;;;1.34;73.91
64460;BME280;50828;53.756;21.140;2023-03-11T00:31:53;97033.52;;;1.35;73.99
64460;BME280;50828;53.756;21.140;2023-03-11T00:37:01;97025.30;;;1.36;74.08
64460;BME280;50828;53.756;21.140;2023-03-11T00:42:09;97022.56;;;1.36;73.96
64460;BME280;50828;53.756;21.140;2023-03-11T00:47:17;97009.61;;;1.34;73.97
64460;BME280;50828;53.756;21.140;2023-03-11T00:52:25;97009.00;;;1.36;74.02
64460;BME280;50828;53.756;21.140;2023-03-11T00:57:34;96999.75;;;1.37;74.00
64460;BME280;50828;53.756;21.140;2023-03-11T01:02:42;96986.34;;;1.35;74.06
64460;BME280;50828;53.756;21.140;2023-03-11T01:07:50;96992.85;;;1.36;74.06
64460;BME280;50828;53.756;21.140;2023-03-11T01:12:58;96990.82;;;1.35;74.18
64460;BME280;50828;53.756;21.140;2023-03-11T01:18:07;96990.87;;;1.35;74.02
64460;BME280;50828;53.756;21.140;2023-03-11T01:23:16;96993.83;;;1.34;74.05
64460;BME280;50828;53.756;21.140;2023-03-11T01:28:24;96989.70;;;1.34;74.15
64460;BME280;50828;53.756;21.140;2023-03-11T01:33:32;96978.66;;;1.32;74.20
64460;BME280;50828;53.756;21.140;2023-03-11T01:38:41;96968.23;;;1.30;74.20
64460;BME280;50828;53.756;21.140;2023-03-11T01:43:52;96964.21;;;1.34;74.10
64460;BME280;50828;53.756;21.140;2023-03-11T01:49:13;96957.62;;;1.34;74.20
64460;BME280;50828;53.756;21.140;2023-03-11T01:54:23;96953.23;;;1.35;74.33
64460;BME280;50828;53.756;21.140;2023-03-11T01:59:35;96949.85;;;1.36;74.25
64460;BME280;50828;53.756;21.140;2023-03-11T02:04:44;96936.79;;;1.37;74.14
64460;BME280;50828;53.756;21.140;2023-03-11T02:09:53;96924.63;;;1.38;74.25
64460;BME280;50828;53.756;21.140;2023-03-11T02:15:00;96910.70;;;1.39;74.34
64460;BME280;50828;53.756;21.140;2023-03-11T02:20:21;96895.46;;;1.38;74.32
64460;BME280;50828;53.756;21.140;2023-03-11T02:25:38;96881.72;;;1.39;74.35
64460;BME280;50828;53.756;21.140;2023-03-11T02:30:50;96870.54;;;1.40;74.46
64460;BME280;50828;53.756;21.140;2023-03-11T02:36:00;96875.67;;;1.42;74.45
64460;BME280;50828;53.756;21.140;2023-03-11T02:41:08;96861.23;;;1.43;74.36
64460;BME280;50828;53.756;21.140;2023-03-11T02:46:16;96857.30;;;1.45;74.34
64460;BME280;50828;53.756;21.140;2023-03-11T02:51:27;96859.90;;;1.45;74.37
64460;BME280;50828;53.756;21.140;2023-03-11T02:56:35;96855.63;;;1.44;74.62
64460;BME280;50828;53.756;21.140;2023-03-11T03:01:43;96867.06;;;1.44;74.48
64460;BME280;50828;53.756;21.140;2023-03-11T03:06:51;96863.23;;;1.44;74.44
64460;BME280;50828;53.756;21.140;2023-03-11T03:11:59;96858.17;;;1.45;74.31
64460;BME280;50828;53.756;21.140;2023-03-11T03:17:09;96852.55;;;1.46;74.44
64460;BME280;50828;53.756;21.140;2023-03-11T03:22:17;96849.77;;;1.46;74.57
64460;BME280;50828;53.756;21.140;2023-03-11T03:27:26;96854.64;;;1.45;74.46
64460;BME280;50828;53.756;21.140;2023-03-11T03:32:38;96868.50;;;1.46;74.44
64460;BME280;50828;53.756;21.140;2023-03-11T03:37:49;96870.02;;;1.47;74.51
64460;BME280;50828;53.756;21.140;2023-03-11T03:42:59;96860.84;;;1.47;74.43
64460;BME280;50828;53.756;21.140;2023-03-11T03:48:07;96857.67;;;1.48;74.63
64460;BME280;50828;53.756;21.140;2023-03-11T03:53:19;96853.34;;;1.47;74.58
64460;BME280;50828;53.756;21.140;2023-03-11T03:58:28;96856.34;;;1.46;74.53
64460;BME280;50828;53.756;21.140;2023-03-11T04:03:36;96859.83;;;1.46;74.58
64460;BME280;50828;53.756;21.140;2023-03-11T04:08:49;96854.63;;;1.46;74.57
64460;BME280;50828;53.756;21.140;2023-03-11T04:13:58;96856.00;;;1.46;74.65
64460;BME280;50828;53.756;21.140;2023-03-11T04:19:09;96858.04;;;1.47;74.74
64460;BME280;50828;53.756;21.140;2023-03-11T04:24:18;96853.14;;;1.48;74.92
64460;BME280;50828;53.756;21.140;2023-03-11T04:29:25;96840.55;;;1.50;74.92
64460;BME280;50828;53.756;21.140;2023-03-11T04:34:33;96844.47;;;1.51;74.81
64460;BME280;50828;53.756;21.140;2023-03-11T04:39:41;96844.75;;;1.52;74.80
64460;BME280;50828;53.756;21.140;2023-03-11T04:44:49;96841.77;;;1.56;74.76
64460;BME280;50828;53.756;21.140;2023-03-11T04:49:58;96846.04;;;1.57;74.85
64460;BME280;50828;53.756;21.140;2023-03-11T04:55:10;96845.50;;;1.58;74.81
64460;BME280;50828;53.756;21.140;2023-03-11T05:00:20;96847.09;;;1.57;74.65
64460;BME280;50828;53.756;21.140;2023-03-11T05:05:38;96849.73;;;1.56;74.87
64460;BME280;50828;53.756;21.140;2023-03-11T05:10:47;96847.58;;;1.54;74.89
64460;BME280;50828;53.756;21.140;2023-03-11T05:15:55;96849.91;;;1.53;74.70
64460;BME280;50828;53.756;21.140;2023-03-11T05:21:04;96842.54;;;1.52;74.91
64460;BME280;50828;53.756;21.140;2023-03-11T05:26:12;96846.77;;;1.51;74.68
64460;BME280;50828;53.756;21.140;2023-03-11T05:31:20;96843.83;;;1.50;74.96
64460;BME280;50828;53.756;21.140;2023-03-11T05:36:29;96857.04;;;1.50;74.96
64460;BME280;50828;53.756;21.140;2023-03-11T05:41:37;96865.41;;;1.49;74.96
64460;BME280;50828;53.756;21.140;2023-03-11T05:46:46;96877.23;;;1.49;74.87
64460;BME280;50828;53.756;21.140;2023-03-11T05:51:54;96880.30;;;1.46;74.77
64460;BME280;50828;53.756;21.140;2023-03-11T05:57:05;96881.64;;;1.44;74.94
64460;BME280;50828;53.756;21.140;2023-03-11T06:02:15;96894.94;;;1.42;74.76
64460;BME280;50828;53.756;21.140;2023-03-11T06:07:23;96901.19;;;1.38;75.03
64460;BME280;50828;53.756;21.140;2023-03-11T06:12:32;96904.77;;;1.36;74.85
64460;BME280;50828;53.756;21.140;2023-03-11T06:17:49;96903.73;;;1.33;74.86
64460;BME280;50828;53.756;21.140;2023-03-11T06:22:58;96916.91;;;1.29;74.81
64460;BME280;50828;53.756;21.140;2023-03-11T06:28:06;96918.01;;;1.25;75.01
64460;BME280;50828;53.756;21.140;2023-03-11T06:33:15;96924.02;;;1.23;74.82
64460;BME280;50828;53.756;21.140;2023-03-11T06:38:24;96930.64;;;1.19;74.86
64460;BME280;50828;53.756;21.140;2023-03-11T06:43:33;96934.08;;;1.17;75.12
64460;BME280;50828;53.756;21.140;2023-03-11T06:48:43;96940.96;;;1.14;75.01
64460;BME280;50828;53.756;21.140;2023-03-11T06:53:54;96942.64;;;1.12;74.99
64460;BME280;50828;53.756;21.140;2023-03-11T06:59:03;96951.78;;;1.09;75.02
64460;BME280;50828;53.756;21.140;2023-03-11T07:04:12;96958.61;;;1.08;75.22
64460;BME280;50828;53.756;21.140;2023-03-11T07:09:21;96968.13;;;1.05;75.11
64460;BME280;50828;53.756;21.140;2023-03-11T07:14:31;96990.98;;;1.02;75.04
64460;BME280;50828;53.756;21.140;2023-03-11T07:19:39;97005.38;;;0.99;75.02
64460;BME280;50828;53.756;21.140;2023-03-11T07:24:48;97015.23;;;0.96;74.87
64460;BME280;50828;53.756;21.140;2023-03-11T07:29:56;97025.98;;;0.92;74.90
64460;BME280;50828;53.756;21.140;2023-03-11T07:35:06;97032.71;;;0.89;75.20
64460;BME280;50828;53.756;21.140;2023-03-11T07:40:14;97044.80;;;0.86;75.01
64460;BME280;50828;53.756;21.140;2023-03-11T07:45:23;97055.15;;;0.84;74.96
64460;BME280;50828;53.756;21.140;2023-03-11T07:50:31;97057.40;;;0.80;75.14
64460;BME280;50828;53.756;21.140;2023-03-11T07:55:38;97067.70;;;0.78;75.19
64460;BME280;50828;53.756;21.140;2023-03-11T08:00:46;97073.55;;;0.76;75.10
64460;BME280;50828;53.756;21.140;2023-03-11T08:05:54;97077.30;;;0.74;74.99
64460;BME280;50828;53.756;21.140;2023-03-11T08:11:03;97088.33;;;0.71;75.14
64460;BME280;50828;53.756;21.140;2023-03-11T08:16:14;97090.67;;;0.69;75.14
64460;BME280;50828;53.756;21.140;2023-03-11T08:21:24;97091.93;;;0.68;75.16
64460;BME280;50828;53.756;21.140;2023-03-11T08:26:32;97100.83;;;0.67;74.99
64460;BME280;50828;53.756;21.140;2023-03-11T08:31:41;97107.41;;;0.67;75.10
64460;BME280;50828;53.756;21.140;2023-03-11T08:36:49;97121.26;;;0.67;75.01
64460;BME280;50828;53.756;21.140;2023-03-11T08:41:57;97127.23;;;0.69;74.91
64460;BME280;50828;53.756;21.140;2023-03-11T08:47:07;97139.51;;;0.70;74.78
64460;BME280;50828;53.756;21.140;2023-03-11T08:52:15;97154.14;;;0.71;74.76
64460;BME280;50828;53.756;21.140;2023-03-11T08:57:24;97170.65;;;0.74;74.68
64460;BME280;50828;53.756;21.140;2023-03-11T09:02:32;97183.64;;;0.74;74.69
64460;BME280;50828;53.756;21.140;2023-03-11T09:07:41;97197.77;;;0.72;74.43
64460;BME280;50828;53.756;21.140;2023-03-11T09:12:50;97202.56;;;0.70;74.21
64460;BME280;50828;53.756;21.140;2023-03-11T09:17:58;97208.17;;;0.68;74.35
64460;BME280;50828;53.756;21.140;2023-03-11T09:23:05;97220.86;;;0.67;74.34
64460;BME280;50828;53.756;21.140;2023-03-11T09:28:14;97232.52;;;0.66;74.21
64460;BME280;50828;53.756;21.140;2023-03-11T09:33:22;97236.78;;;0.68;74.37
64460;BME280;50828;53.756;21.140;2023-03-11T09:38:31;97244.88;;;0.68;74.17
64460;BME280;50828;53.756;21.140;2023-03-11T09:43:54;97251.54;;;0.63;74.28
64460;BME280;50828;53.756;21.140;2023-03-11T09:49:12;97276.11;;;0.72;74.16
64460;BME280;50828;53.756;21.140;2023-03-11T09:54:22;97290.99;;;0.72;74.09
64460;BME280;50828;53.756;21.140;2023-03-11T09:59:32;97300.53;;;0.71;73.87
64460;BME280;50828;53.756;21.140;2023-03-11T10:04:44;97309.23;;;0.71;73.91
64460;BME280;50828;53.756;21.140;2023-03-11T10:09:56;97317.90;;;0.70;73.92
64460;BME280;50828;53.756;21.140;2023-03-11T10:15:11;97326.06;;;0.70;73.62
64460;BME280;50828;53.756;21.140;2023-03-11T10:20:23;97336.34;;;0.68;73.40
64460;BME280;50828;53.756;21.140;2023-03-11T10:25:41;97346.43;;;0.67;73.71
64460;BME280;50828;53.756;21.140;2023-03-11T10:30:56;97361.04;;;0.66;73.49
64460;BME280;50828;53.756;21.140;2023-03-11T10:36:13;97368.59;;;0.68;73.41
64460;BME280;50828;53.756;21.140;2023-03-11T10:41:30;97382.14;;;0.67;73.39
64460;BME280;50828;53.756;21.140;2023-03-11T10:46:38;97383.48;;;0.64;73.53
64460;BME280;50828;53.756;21.140;2023-03-11T10:51:48;97400.64;;;0.64;73.27
64460;BME280;50828;53.756;21.140;2023-03-11T10:56:58;97416.86;;;0.61;73.33
64460;BME280;50828;53.756;21.140;2023-03-11T11:02:23;97427.20;;;0.59;73.05
64460;BME280;50828;53.756;21.140;2023-03-11T11:07:35;97445.69;;;0.55;73.19
64460;BME280;50828;53.756;21.140;2023-03-11T11:12:56;97453.63;;;0.52;73.04
64460;BME280;50828;53.756;21.140;2023-03-11T11:18:14;97473.62;;;0.50;73.34
64460;BME280;50828;53.756;21.140;2023-03-11T11:23:32;97486.69;;;0.48;73.19
64460;BME280;50828;53.756;21.140;2023-03-11T11:28:41;97495.61;;;0.46;73.15
64460;BME280;50828;53.756;21.140;2023-03-11T11:33:53;97502.87;;;0.46;73.13
64460;BME280;50828;53.756;21.140;2023-03-11T11:39:02;97511.92;;;0.45;73.03
64460;BME280;50828;53.756;21.140;2023-03-11T11:44:21;97518.70;;;0.44;73.17
64460;BME280;50828;53.756;21.140;2023-03-11T11:49:37;97531.73;;;0.43;73.14
64460;BME280;50828;53.756;21.140;2023-03-11T11:54:55;97545.09;;;0.43;73.05
64460;BME280;50828;53.756;21.140;2023-03-11T12:00:17;97554.61;;;0.43;72.83
64460;BME280;50828;53.756;21.140;2023-03-11T12:05:30;97563.31;;;0.42;72.85
64460;BME280;50828;53.756;21.140;2023-03-11T12:10:43;97574.06;;;0.41;72.76
64460;BME280;50828;53.756;21.140;2023-03-11T12:15:58;97578.38;;;0.42;72.83
64460;BME280;50828;53.756;21.140;2023-03-11T12:21:17;97577.17;;;0.42;72.85
64460;BME280;50828;53.756;21.140;2023-03-11T12:26:34;97586.33;;;0.42;72.54
64460;BME280;50828;53.756;21.140;2023-03-11T12:31:46;97592.53;;;0.43;72.49
64460;BME280;50828;53.756;21.140;2023-03-11T12:36:57;97605.53;;;0.42;72.38
64460;BME280;50828;53.756;21.140;2023-03-11T12:42:19;97615.08;;;0.42;72.52
64460;BME280;50828;53.756;21.140;2023-03-11T12:47:28;97624.08;;;0.42;72.16
64460;BME280;50828;53.756;21.140;2023-03-11T12:52:53;97631.88;;;0.42;71.98
64460;BME280;50828;53.756;21.140;2023-03-11T12:58:28;97648.66;;;0.42;71.97
64460;BME280;50828;53.756;21.140;2023-03-11T13:03:49;97663.19;;;0.43;72.02
64460;BME280;50828;53.756;21.140;2023-03-11T13:08:59;97675.32;;;0.43;71.93
64460;BME280;50828;53.756;21.140;2023-03-11T13:14:30;97680.33;;;0.43;71.86
64460;BME280;50828;53.756;21.140;2023-03-11T13:19:58;97690.18;;;0.43;72.02
64460;BME280;50828;53.756;21.140;2023-03-11T13:30:46;97715.20;;;0.50;71.83
64460;BME280;50828;53.756;21.140;2023-03-11T13:36:27;97726.12;;;0.46;71.86
64460;BME280;50828;53.756;21.140;2023-03-11T13:41:42;97742.09;;;0.45;71.63
64460;BME280;50828;53.756;21.140;2023-03-11T13:46:53;97754.77;;;0.44;71.58
64460;BME280;50828;53.756;21.140;2023-03-11T13:52:06;97758.44;;;0.43;71.60
64460;BME280;50828;53.756;21.140;2023-03-11T13:57:29;97762.62;;;0.42;71.48
64460;BME280;50828;53.756;21.140;2023-03-11T14:02:46;97770.59;;;0.42;71.50
64460;BME280;50828;53.756;21.140;2023-03-11T14:08:12;97783.80;;;0.40;71.37
64460;BME280;50828;53.756;21.140;2023-03-11T14:13:28;97791.77;;;0.40;71.47
64460;BME280;50828;53.756;21.140;2023-03-11T14:18:38;97804.25;;;0.40;71.46
64460;BME280;50828;53.756;21.140;2023-03-11T14:23:48;97810.11;;;0.41;71.41
64460;BME280;50828;53.756;21.140;2023-03-11T14:28:59;97819.32;;;0.40;71.06
64460;BME280;50828;53.756;21.140;2023-03-11T14:34:16;97825.23;;;0.39;71.00
64460;BME280;50828;53.756;21.140;2023-03-11T14:39:29;97841.10;;;0.36;70.78
64460;BME280;50828;53.756;21.140;2023-03-11T14:44:40;97852.18;;;0.31;70.51
64460;BME280;50828;53.756;21.140;2023-03-11T14:49:51;97862.85;;;0.28;70.47
64460;BME280;50828;53.756;21.140;2023-03-11T14:55:01;97877.10;;;0.27;70.67
64460;BME280;50828;53.756;21.140;2023-03-11T15:00:17;97882.49;;;0.26;70.82
64460;BME280;50828;53.756;21.140;2023-03-11T15:05:30;97892.04;;;0.25;70.78
64460;BME280;50828;53.756;21.140;2023-03-11T15:10:40;97901.41;;;0.24;70.62
64460;BME280;50828;53.756;21.140;2023-03-11T15:16:30;97908.72;;;0.23;70.45
64460;BME280;50828;53.756;21.140;2023-03-11T15:21:46;97918.21;;;0.24;70.49
64460;BME280;50828;53.756;21.140;2023-03-11T15:26:56;97928.45;;;0.23;70.37
64460;BME280;50828;53.756;21.140;2023-03-11T15:32:24;97937.50;;;0.22;70.25
64460;BME280;50828;53.756;21.140;2023-03-11T15:37:33;97948.67;;;0.19;70.04
64460;BME280;50828;53.756;21.140;2023-03-11T15:42:41;97959.94;;;0.18;70.25
64460;BME280;50828;53.756;21.140;2023-03-11T15:47:50;97965.65;;;0.19;69.99
64460;BME280;50828;53.756;21.140;2023-03-11T15:52:59;97971.55;;;0.18;70.04
64460;BME280;50828;53.756;21.140;2023-03-11T15:58:10;97979.66;;;0.19;70.07
64460;BME280;50828;53.756;21.140;2023-03-11T16:03:19;97992.27;;;0.20;69.72
64460;BME280;50828;53.756;21.140;2023-03-11T16:08:27;98003.33;;;0.21;69.85
64460;BME280;50828;53.756;21.140;2023-03-11T16:13:36;98008.16;;;0.21;69.79
64460;BME280;50828;53.756;21.140;2023-03-11T16:18:44;98015.81;;;0.20;69.81
64460;BME280;50828;53.756;21.140;2023-03-11T16:23:52;98026.77;;;0.18;69.84
64460;BME280;50828;53.756;21.140;2023-03-11T16:29:01;98036.53;;;0.16;69.90
64460;BME280;50828;53.756;21.140;2023-03-11T16:34:24;98040.92;;;0.14;69.94
64460;BME280;50828;53.756;21.140;2023-03-11T16:39:32;98054.48;;;0.12;70.02
64460;BME280;50828;53.756;21.140;2023-03-11T16:44:40;98075.57;;;0.08;69.87
64460;BME280;50828;53.756;21.140;2023-03-11T16:49:48;98094.88;;;0.04;69.84
64460;BME280;50828;53.756;21.140;2023-03-11T16:54:59;98102.61;;;0.00;69.79
64460;BME280;50828;53.756;21.140;2023-03-11T17:00:10;98115.16;;;-0.03;69.87
64460;BME280;50828;53.756;21.140;2023-03-11T17:05:19;98126.48;;;-0.05;69.88
64460;BME280;50828;53.756;21.140;2023-03-11T17:10:27;98135.52;;;-0.06;70.14
64460;BME280;50828;53.756;21.140;2023-03-11T17:15:36;98145.38;;;-0.06;70.13
64460;BME280;50828;53.756;21.140;2023-03-11T17:20:48;98150.59;;;-0.07;70.09
64460;BME280;50828;53.756;21.140;2023-03-11T17:25:56;98152.56;;;-0.15;69.91
64460;BME280;50828;53.756;21.140;2023-03-11T17:31:11;98167.16;;;-0.11;70.03
64460;BME280;50828;53.756;21.140;2023-03-11T17:36:20;98179.04;;;-0.16;70.07
64460;BME280;50828;53.756;21.140;2023-03-11T17:41:29;98186.17;;;-0.17;70.10
64460;BME280;50828;53.756;21.140;2023-03-11T17:46:37;98194.05;;;-0.20;70.19
64460;BME280;50828;53.756;21.140;2023-03-11T17:51:47;98202.73;;;-0.22;70.11
64460;BME280;50828;53.756;21.140;2023-03-11T17:56:57;98219.19;;;-0.22;70.08
64460;BME280;50828;53.756;21.140;2023-03-11T18:02:05;98222.50;;;-0.24;69.98
64460;BME280;50828;53.756;21.140;2023-03-11T18:07:14;98231.54;;;-0.25;69.84
64460;BME280;50828;53.756;21.140;2023-03-11T18:12:23;98237.65;;;-0.27;69.34
64460;BME280;50828;53.756;21.140;2023-03-11T18:17:32;98245.67;;;-0.30;69.16
64460;BME280;50828;53.756;21.140;2023-03-11T18:22:41;98258.61;;;-0.35;68.86
64460;BME280;50828;53.756;21.140;2023-03-11T18:27:52;98269.73;;;-0.37;68.72
64460;BME280;50828;53.756;21.140;2023-03-11T18:33:01;98281.41;;;-0.40;68.52
64460;BME280;50828;53.756;21.140;2023-03-11T18:38:09;98289.65;;;-0.45;68.39
64460;BME280;50828;53.756;21.140;2023-03-11T18:43:18;98294.09;;;-0.49;68.31
64460;BME280;50828;53.756;21.140;2023-03-11T18:48:27;98302.86;;;-0.54;67.83
64460;BME280;50828;53.756;21.140;2023-03-11T18:53:34;98305.55;;;-0.59;67.95
64460;BME280;50828;53.756;21.140;2023-03-11T18:58:43;98306.98;;;-0.61;67.76
64460;BME280;50828;53.756;21.140;2023-03-11T19:03:52;98314.35;;;-0.65;67.41
64460;BME280;50828;53.756;21.140;2023-03-11T19:09:01;98322.09;;;-0.71;67.31
64460;BME280;50828;53.756;21.140;2023-03-11T19:14:11;98327.24;;;-0.77;67.16
64460;BME280;50828;53.756;21.140;2023-03-11T19:19:18;98337.91;;;-0.82;67.05
64460;BME280;50828;53.756;21.140;2023-03-11T19:24:27;98344.62;;;-0.89;66.93
64460;BME280;50828;53.756;21.140;2023-03-11T19:29:34;98347.50;;;-0.94;67.04
64460;BME280;50828;53.756;21.140;2023-03-11T19:34:42;98350.71;;;-0.99;66.94
64460;BME280;50828;53.756;21.140;2023-03-11T19:39:49;98359.13;;;-1.04;67.00
64460;BME280;50828;53.756;21.140;2023-03-11T19:44:58;98362.36;;;-1.11;66.86
64460;BME280;50828;53.756;21.140;2023-03-11T19:50:07;98366.98;;;-1.17;66.78
64460;BME280;50828;53.756;21.140;2023-03-11T19:55:16;98369.56;;;-1.24;67.06
64460;BME280;50828;53.756;21.140;2023-03-11T20:00:25;98379.33;;;-1.29;67.22
64460;BME280;50828;53.756;21.140;2023-03-11T20:05:35;98390.77;;;-1.32;67.37
64460;BME280;50828;53.756;21.140;2023-03-11T20:10:46;98396.67;;;-1.34;67.65
64460;BME280;50828;53.756;21.140;2023-03-11T20:15:54;98398.08;;;-1.35;68.06
64460;BME280;50828;53.756;21.140;2023-03-11T20:21:05;98396.70;;;-1.35;68.44
64460;BME280;50828;53.756;21.140;2023-03-11T20:26:16;98403.23;;;-1.33;68.57
64460;BME280;50828;53.756;21.140;2023-03-11T20:31:26;98407.70;;;-1.32;68.71
64460;BME280;50828;53.756;21.140;2023-03-11T20:36:36;98409.39;;;-1.30;68.77
64460;BME280;50828;53.756;21.140;2023-03-11T20:41:44;98406.11;;;-1.29;68.91
64460;BME280;50828;53.756;21.140;2023-03-11T20:46:53;98405.72;;;-1.27;69.07
64460;BME280;50828;53.756;21.140;2023-03-11T20:52:01;98405.70;;;-1.26;69.01
64460;BME280;50828;53.756;21.140;2023-03-11T20:57:09;98413.98;;;-1.25;68.96
64460;BME280;50828;53.756;21.140;2023-03-11T21:02:18;98420.58;;;-1.27;68.56
64460;BME280;50828;53.756;21.140;2023-03-11T21:07:26;98419.25;;;-1.30;68.46
64460;BME280;50828;53.756;21.140;2023-03-11T21:12:35;98419.15;;;-1.35;68.34
64460;BME280;50828;53.756;21.140;2023-03-11T21:17:44;98423.87;;;-1.38;68.09
64460;BME280;50828;53.756;21.140;2023-03-11T21:22:53;98426.55;;;-1.43;68.13
64460;BME280;50828;53.756;21.140;2023-03-11T21:28:02;98426.63;;;-1.47;67.87
64460;BME280;50828;53.756;21.140;2023-03-11T21:33:10;98432.06;;;-1.51;67.76
64460;BME280;50828;53.756;21.140;2023-03-11T21:38:19;98432.00;;;-1.57;67.57
64460;BME280;50828;53.756;21.140;2023-03-11T21:43:28;98433.64;;;-1.62;67.70
64460;BME280;50828;53.756;21.140;2023-03-11T21:48:37;98438.74;;;-1.68;67.56
64460;BME280;50828;53.756;21.140;2023-03-11T21:53:45;98436.06;;;-1.73;67.45
64460;BME280;50828;53.756;21.140;2023-03-11T21:58:53;98436.67;;;-1.78;67.45
64460;BME280;50828;53.756;21.140;2023-03-11T22:04:01;98440.23;;;-1.83;67.51
64460;BME280;50828;53.756;21.140;2023-03-11T22:09:09;98440.66;;;-1.89;67.26
64460;BME280;50828;53.756;21.140;2023-03-11T22:14:17;98447.13;;;-1.94;67.45
64460;BME280;50828;53.756;21.140;2023-03-11T22:19:26;98450.98;;;-1.98;67.44
64460;BME280;50828;53.756;21.140;2023-03-11T22:24:34;98453.12;;;-2.02;67.51
64460;BME280;50828;53.756;21.140;2023-03-11T22:29:43;98455.58;;;-2.05;67.66
64460;BME280;50828;53.756;21.140;2023-03-11T22:34:51;98458.03;;;-2.07;67.61
64460;BME280;50828;53.756;21.140;2023-03-11T22:39:59;98453.79;;;-2.11;67.65
64460;BME280;50828;53.756;21.140;2023-03-11T22:45:09;98456.10;;;-2.16;67.78
64460;BME280;50828;53.756;21.140;2023-03-11T22:50:18;98458.95;;;-2.22;67.89
64460;BME280;50828;53.756;21.140;2023-03-11T22:55:27;98457.96;;;-2.25;68.11
64460;BME280;50828;53.756;21.140;2023-03-11T23:00:35;98461.59;;;-2.26;68.13
64460;BME280;50828;53.756;21.140;2023-03-11T23:05:44;98457.98;;;-2.26;68.23
64460;BME280;50828;53.756;21.140;2023-03-11T23:10:52;98452.31;;;-2.28;68.09
64460;BME280;50828;53.756;21.140;2023-03-11T23:16:04;98452.55;;;-2.32;68.12
64460;BME280;50828;53.756;21.140;2023-03-11T23:21:17;98448.61;;;-2.35;68.07
64460;BME280;50828;53.756;21.140;2023-03-11T23:26:27;98456.91;;;-2.36;68.11
64460;BME280;50828;53.756;21.140;2023-03-11T23:31:36;98454.35;;;-2.37;68.03
64460;BME280;50828;53.756;21.140;2023-03-11T23:36:44;98456.42;;;-2.37;67.93
64460;BME280;50828;53.756;21.140;2023-03-11T23:41:52;98459.69;;;-2.37;67.90
64460;BME280;50828;53.756;21.140;2023-03-11T23:47:00;98457.33;;;-2.41;67.95
64460;BME280;50828;53.756;21.140;2023-03-11T23:52:09;98456.34;;;-2.44;67.82
64460;BME280;50828;53.756;21.140;2023-03-11T23:57:16;98455.73;;;-2.49;67.94
